sensor_id;sensor_type;location;lat;lon;timestamp;P1;durP1;ratioP1;P2;durP2;ratioP2
65545;SDS011;52177;55.968;37.498;2023-11-22T00:00:20;3.97;;;3.25;;
65545;SDS011;52177;55.968;37.498;2023-11-22T00:00:51;5.15;;;3.70;;
65545;SDS011;52177;55.968;37.498;2023-11-22T00:01:21;4.57;;;3.60;;
65545;SDS011;52177;55.968;37.498;2023-11-22T00:01:52;4.25;;;3.85;;
65545;SDS011;52177;55.968;37.498;2023-11-22T00:02:23;4.50;;;3.85;;
65545;SDS011;52177;55.968;37.498;2023-11-22T00:02:56;3.92;;;3.58;;
65545;SDS011;52177;55.968;37.498;2023-11-22T00:03:27;4.75;;;3.83;;
65545;SDS011;52177;55.968;37.498;2023-11-22T00:03:57;5.85;;;3.97;;
65545;SDS011;52177;55.968;37.498;2023-11-22T00:04:28;6.47;;;4.05;;
65545;SDS011;52177;55.968;37.498;2023-11-22T00:04:58;5.13;;;3.70;;
65545;SDS011;52177;55.968;37.498;2023-11-22T00:05:29;5.78;;;3.80;;
65545;SDS011;52177;55.968;37.498;2023-11-22T00:05:59;5.25;;;3.95;;
65545;SDS011;52177;55.968;37.498;2023-11-22T00:06:31;7.05;;;4.00;;
65545;SDS011;52177;55.968;37.498;2023-11-22T00:07:01;4.13;;;3.72;;
65545;SDS011;52177;55.968;37.498;2023-11-22T00:07:32;5.45;;;4.22;;
65545;SDS011;52177;55.968;37.498;2023-11-22T00:08:03;6.10;;;3.67;;
65545;SDS011;52177;55.968;37.498;2023-11-22T00:08:33;4.75;;;3.45;;
65545;SDS011;52177;55.968;37.498;2023-11-22T00:09:04;5.22;;;3.72;;
65545;SDS011;52177;55.968;37.498;2023-11-22T00:09:34;6.30;;;3.92;;
65545;SDS011;52177;55.968;37.498;2023-11-22T00:10:05;5.63;;;3.88;;
65545;SDS011;52177;55.968;37.498;2023-11-22T00:10:38;5.05;;;4.00;;
65545;SDS011;52177;55.968;37.498;2023-11-22T00:11:09;6.00;;;4.30;;
65545;SDS011;52177;55.968;37.498;2023-11-22T00:11:39;6.63;;;3.85;;
65545;SDS011;52177;55.968;37.498;2023-11-22T00:12:13;4.93;;;3.80;;
65545;SDS011;52177;55.968;37.498;2023-11-22T00:12:43;5.15;;;3.75;;
65545;SDS011;52177;55.968;37.498;2023-11-22T00:13:14;5.63;;;4.20;;
65545;SDS011;52177;55.968;37.498;2023-11-22T00:13:45;5.20;;;4.13;;
65545;SDS011;52177;55.968;37.498;2023-11-22T00:14:15;7.50;;;4.50;;
65545;SDS011;52177;55.968;37.498;2023-11-22T00:14:46;5.07;;;4.32;;
65545;SDS011;52177;55.968;37.498;2023-11-22T00:15:17;5.20;;;4.15;;
65545;SDS011;52177;55.968;37.498;2023-11-22T00:15:48;6.38;;;4.20;;
65545;SDS011;52177;55.968;37.498;2023-11-22T00:16:20;5.75;;;3.90;;
65545;SDS011;52177;55.968;37.498;2023-11-22T00:16:51;5.45;;;4.03;;
65545;SDS011;52177;55.968;37.498;2023-11-22T00:17:21;5.15;;;3.60;;
65545;SDS011;52177;55.968;37.498;2023-11-22T00:17:53;5.65;;;4.00;;
65545;SDS011;52177;55.968;37.498;2023-11-22T00:18:23;5.28;;;4.20;;
65545;SDS011;52177;55.968;37.498;2023-11-22T00:18:56;5.93;;;3.83;;
65545;SDS011;52177;55.968;37.498;2023-11-22T00:19:26;6.63;;;4.47;;
65545;SDS011;52177;55.968;37.498;2023-11-22T00:19:57;4.95;;;3.63;;
65545;SDS011;52177;55.968;37.498;2023-11-22T00:20:27;8.10;;;4.00;;
65545;SDS011;52177;55.968;37.498;2023-11-22T00:20:58;6.05;;;4.68;;
65545;SDS011;52177;55.968;37.498;2023-11-22T00:21:29;3.88;;;3.50;;
65545;SDS011;52177;55.968;37.498;2023-11-22T00:22:00;6.95;;;4.28;;
65545;SDS011;52177;55.968;37.498;2023-11-22T00:22:33;6.30;;;4.28;;
65545;SDS011;52177;55.968;37.498;2023-11-22T00:23:03;6.57;;;4.45;;
65545;SDS011;52177;55.968;37.498;2023-11-22T00:23:34;5.25;;;3.92;;
65545;SDS011;52177;55.968;37.498;2023-11-22T00:24:04;7.13;;;4.18;;
65545;SDS011;52177;55.968;37.498;2023-11-22T00:24:35;7.15;;;4.07;;
65545;SDS011;52177;55.968;37.498;2023-11-22T00:25:06;6.53;;;4.45;;
65545;SDS011;52177;55.968;37.498;2023-11-22T00:25:36;6.18;;;4.68;;
65545;SDS011;52177;55.968;37.498;2023-11-22T00:26:07;10.45;;;4.97;;
65545;SDS011;52177;55.968;37.498;2023-11-22T00:26:37;6.55;;;4.40;;
65545;SDS011;52177;55.968;37.498;2023-11-22T00:27:08;6.47;;;4.35;;
65545;SDS011;52177;55.968;37.498;2023-11-22T00:27:40;5.28;;;4.43;;
65545;SDS011;52177;55.968;37.498;2023-11-22T00:28:11;5.32;;;4.28;;
65545;SDS011;52177;55.968;37.498;2023-11-22T00:28:42;5.13;;;4.15;;
65545;SDS011;52177;55.968;37.498;2023-11-22T00:29:12;6.13;;;4.30;;
65545;SDS011;52177;55.968;37.498;2023-11-22T00:29:42;5.07;;;4.32;;
65545;SDS011;52177;55.968;37.498;2023-11-22T00:30:13;7.82;;;4.38;;
65545;SDS011;52177;55.968;37.498;2023-11-22T00:30:44;6.30;;;4.53;;
65545;SDS011;52177;55.968;37.498;2023-11-22T00:31:15;7.05;;;4.60;;
65545;SDS011;52177;55.968;37.498;2023-11-22T00:31:45;6.38;;;4.53;;
65545;SDS011;52177;55.968;37.498;2023-11-22T00:32:16;6.40;;;4.65;;
65545;SDS011;52177;55.968;37.498;2023-11-22T00:32:46;5.82;;;4.28;;
65545;SDS011;52177;55.968;37.498;2023-11-22T00:33:17;6.80;;;4.20;;
65545;SDS011;52177;55.968;37.498;2023-11-22T00:33:50;5.07;;;4.20;;
65545;SDS011;52177;55.968;37.498;2023-11-22T00:34:20;7.22;;;4.45;;
65545;SDS011;52177;55.968;37.498;2023-11-22T00:34:51;5.00;;;4.50;;
65545;SDS011;52177;55.968;37.498;2023-11-22T00:35:22;7.28;;;4.57;;
65545;SDS011;52177;55.968;37.498;2023-11-22T00:35:53;5.13;;;4.43;;
65545;SDS011;52177;55.968;37.498;2023-11-22T00:36:26;5.35;;;4.20;;
65545;SDS011;52177;55.968;37.498;2023-11-22T00:36:57;8.25;;;4.03;;
65545;SDS011;52177;55.968;37.498;2023-11-22T00:37:27;5.50;;;4.30;;
65545;SDS011;52177;55.968;37.498;2023-11-22T00:37:58;9.20;;;4.78;;
65545;SDS011;52177;55.968;37.498;2023-11-22T00:38:28;6.75;;;5.20;;
65545;SDS011;52177;55.968;37.498;2023-11-22T00:38:58;6.68;;;4.07;;
65545;SDS011;52177;55.968;37.498;2023-11-22T00:39:29;5.78;;;4.38;;
65545;SDS011;52177;55.968;37.498;2023-11-22T00:40:00;6.43;;;4.65;;
65545;SDS011;52177;55.968;37.498;2023-11-22T00:40:36;5.28;;;4.10;;
65545;SDS011;52177;55.968;37.498;2023-11-22T00:41:06;6.07;;;4.40;;
65545;SDS011;52177;55.968;37.498;2023-11-22T00:41:37;5.55;;;4.50;;
65545;SDS011;52177;55.968;37.498;2023-11-22T00:42:08;6.20;;;4.30;;
65545;SDS011;52177;55.968;37.498;2023-11-22T00:42:38;6.22;;;4.47;;
65545;SDS011;52177;55.968;37.498;2023-11-22T00:43:11;5.90;;;4.45;;
65545;SDS011;52177;55.968;37.498;2023-11-22T00:43:42;6.00;;;4.40;;
65545;SDS011;52177;55.968;37.498;2023-11-22T00:44:12;6.35;;;4.35;;
65545;SDS011;52177;55.968;37.498;2023-11-22T00:44:43;6.05;;;4.40;;
65545;SDS011;52177;55.968;37.498;2023-11-22T00:45:13;8.05;;;4.55;;
65545;SDS011;52177;55.968;37.498;2023-11-22T00:45:44;7.85;;;4.43;;
65545;SDS011;52177;55.968;37.498;2023-11-22T00:46:15;7.18;;;4.07;;
65545;SDS011;52177;55.968;37.498;2023-11-22T00:46:45;6.13;;;4.45;;
65545;SDS011;52177;55.968;37.498;2023-11-22T00:47:16;10.10;;;4.25;;
65545;SDS011;52177;55.968;37.498;2023-11-22T00:47:46;7.47;;;4.72;;
65545;SDS011;52177;55.968;37.498;2023-11-22T00:48:18;5.97;;;4.18;;
65545;SDS011;52177;55.968;37.498;2023-11-22T00:48:48;6.68;;;4.93;;
65545;SDS011;52177;55.968;37.498;2023-11-22T00:49:20;5.85;;;4.22;;
65545;SDS011;52177;55.968;37.498;2023-11-22T00:49:50;6.53;;;4.18;;
65545;SDS011;52177;55.968;37.498;2023-11-22T00:50:21;6.85;;;4.00;;
65545;SDS011;52177;55.968;37.498;2023-11-22T00:50:51;5.53;;;4.03;;
65545;SDS011;52177;55.968;37.498;2023-11-22T00:51:22;6.65;;;4.50;;
65545;SDS011;52177;55.968;37.498;2023-11-22T00:51:53;7.40;;;4.75;;
65545;SDS011;52177;55.968;37.498;2023-11-22T00:52:23;5.32;;;4.18;;
65545;SDS011;52177;55.968;37.498;2023-11-22T00:52:54;6.72;;;4.57;;
65545;SDS011;52177;55.968;37.498;2023-11-22T00:53:25;7.72;;;4.43;;
65545;SDS011;52177;55.968;37.498;2023-11-22T00:53:55;8.73;;;4.57;;
65545;SDS011;52177;55.968;37.498;2023-11-22T00:54:25;6.25;;;4.35;;
65545;SDS011;52177;55.968;37.498;2023-11-22T00:54:56;5.93;;;4.43;;
65545;SDS011;52177;55.968;37.498;2023-11-22T00:55:27;6.32;;;4.50;;
65545;SDS011;52177;55.968;37.498;2023-11-22T00:55:57;5.95;;;4.18;;
65545;SDS011;52177;55.968;37.498;2023-11-22T00:56:28;5.97;;;4.15;;
65545;SDS011;52177;55.968;37.498;2023-11-22T00:56:58;6.97;;;4.20;;
65545;SDS011;52177;55.968;37.498;2023-11-22T00:57:30;6.10;;;4.18;;
65545;SDS011;52177;55.968;37.498;2023-11-22T00:58:00;4.85;;;3.80;;
65545;SDS011;52177;55.968;37.498;2023-11-22T00:58:34;5.10;;;4.05;;
65545;SDS011;52177;55.968;37.498;2023-11-22T00:59:04;6.05;;;4.07;;
65545;SDS011;52177;55.968;37.498;2023-11-22T00:59:35;4.80;;;3.75;;
65545;SDS011;52177;55.968;37.498;2023-11-22T01:00:06;7.22;;;4.53;;
65545;SDS011;52177;55.968;37.498;2023-11-22T01:00:39;5.57;;;4.38;;
65545;SDS011;52177;55.968;37.498;2023-11-22T01:01:10;6.18;;;4.15;;
65545;SDS011;52177;55.968;37.498;2023-11-22T01:01:41;4.38;;;3.97;;
65545;SDS011;52177;55.968;37.498;2023-11-22T01:02:12;5.75;;;4.07;;
65545;SDS011;52177;55.968;37.498;2023-11-22T01:02:42;5.40;;;3.75;;
65545;SDS011;52177;55.968;37.498;2023-11-22T01:03:13;3.97;;;3.38;;
65545;SDS011;52177;55.968;37.498;2023-11-22T01:03:44;5.60;;;3.97;;
65545;SDS011;52177;55.968;37.498;2023-11-22T01:04:14;4.32;;;3.75;;
65545;SDS011;52177;55.968;37.498;2023-11-22T01:04:45;7.95;;;4.50;;
65545;SDS011;52177;55.968;37.498;2023-11-22T01:05:15;6.28;;;4.35;;
65545;SDS011;52177;55.968;37.498;2023-11-22T01:05:47;7.75;;;4.63;;
65545;SDS011;52177;55.968;37.498;2023-11-22T01:06:18;5.68;;;4.43;;
65545;SDS011;52177;55.968;37.498;2023-11-22T01:06:48;7.43;;;4.40;;
65545;SDS011;52177;55.968;37.498;2023-11-22T01:07:19;8.82;;;4.40;;
65545;SDS011;52177;55.968;37.498;2023-11-22T01:07:49;5.90;;;4.00;;
65545;SDS011;52177;55.968;37.498;2023-11-22T01:08:20;7.18;;;4.47;;
65545;SDS011;52177;55.968;37.498;2023-11-22T01:08:50;5.88;;;4.20;;
65545;SDS011;52177;55.968;37.498;2023-11-22T01:09:20;6.82;;;4.15;;
65545;SDS011;52177;55.968;37.498;2023-11-22T01:09:51;6.75;;;3.95;;
65545;SDS011;52177;55.968;37.498;2023-11-22T01:10:23;4.75;;;3.67;;
65545;SDS011;52177;55.968;37.498;2023-11-22T01:10:53;7.07;;;4.05;;
65545;SDS011;52177;55.968;37.498;2023-11-22T01:11:24;7.18;;;4.13;;
65545;SDS011;52177;55.968;37.498;2023-11-22T01:11:54;7.90;;;4.40;;
65545;SDS011;52177;55.968;37.498;2023-11-22T01:12:25;6.57;;;4.47;;
65545;SDS011;52177;55.968;37.498;2023-11-22T01:12:55;6.05;;;4.22;;
65545;SDS011;52177;55.968;37.498;2023-11-22T01:13:26;7.20;;;4.15;;
65545;SDS011;52177;55.968;37.498;2023-11-22T01:13:56;7.32;;;3.97;;
65545;SDS011;52177;55.968;37.498;2023-11-22T01:14:27;6.07;;;4.10;;
65545;SDS011;52177;55.968;37.498;2023-11-22T01:14:57;7.32;;;4.40;;
65545;SDS011;52177;55.968;37.498;2023-11-22T01:15:28;4.85;;;4.32;;
65545;SDS011;52177;55.968;37.498;2023-11-22T01:15:58;5.43;;;4.45;;
65545;SDS011;52177;55.968;37.498;2023-11-22T01:16:29;6.32;;;4.25;;
65545;SDS011;52177;55.968;37.498;2023-11-22T01:16:59;5.97;;;4.22;;
65545;SDS011;52177;55.968;37.498;2023-11-22T01:17:30;6.38;;;4.43;;
65545;SDS011;52177;55.968;37.498;2023-11-22T01:18:00;5.43;;;4.10;;
65545;SDS011;52177;55.968;37.498;2023-11-22T01:18:31;7.85;;;4.50;;
65545;SDS011;52177;55.968;37.498;2023-11-22T01:19:01;6.75;;;4.38;;
65545;SDS011;52177;55.968;37.498;2023-11-22T01:19:32;6.50;;;4.20;;
65545;SDS011;52177;55.968;37.498;2023-11-22T01:20:02;6.63;;;4.47;;
65545;SDS011;52177;55.968;37.498;2023-11-22T01:20:33;7.72;;;4.10;;
65545;SDS011;52177;55.968;37.498;2023-11-22T01:21:04;5.97;;;4.07;;
65545;SDS011;52177;55.968;37.498;2023-11-22T01:21:35;6.93;;;4.40;;
65545;SDS011;52177;55.968;37.498;2023-11-22T01:22:06;6.18;;;4.22;;
65545;SDS011;52177;55.968;37.498;2023-11-22T01:22:36;7.63;;;4.18;;
65545;SDS011;52177;55.968;37.498;2023-11-22T01:23:08;5.47;;;3.65;;
65545;SDS011;52177;55.968;37.498;2023-11-22T01:23:38;6.78;;;4.40;;
65545;SDS011;52177;55.968;37.498;2023-11-22T01:24:09;8.93;;;4.40;;
65545;SDS011;52177;55.968;37.498;2023-11-22T01:24:39;5.35;;;4.00;;
65545;SDS011;52177;55.968;37.498;2023-11-22T01:25:09;5.93;;;3.90;;
65545;SDS011;52177;55.968;37.498;2023-11-22T01:25:40;4.60;;;3.78;;
65545;SDS011;52177;55.968;37.498;2023-11-22T01:26:10;5.90;;;3.95;;
65545;SDS011;52177;55.968;37.498;2023-11-22T01:26:41;7.38;;;4.40;;
65545;SDS011;52177;55.968;37.498;2023-11-22T01:27:11;5.97;;;3.95;;
65545;SDS011;52177;55.968;37.498;2023-11-22T01:27:42;4.40;;;3.90;;
65545;SDS011;52177;55.968;37.498;2023-11-22T01:28:12;5.47;;;3.90;;
65545;SDS011;52177;55.968;37.498;2023-11-22T01:28:43;4.97;;;3.50;;
65545;SDS011;52177;55.968;37.498;2023-11-22T01:29:14;7.13;;;3.78;;
65545;SDS011;52177;55.968;37.498;2023-11-22T01:29:45;5.38;;;4.20;;
65545;SDS011;52177;55.968;37.498;2023-11-22T01:30:15;5.90;;;4.03;;
65545;SDS011;52177;55.968;37.498;2023-11-22T01:30:48;5.53;;;3.63;;
65545;SDS011;52177;55.968;37.498;2023-11-22T01:31:19;3.90;;;3.45;;
65545;SDS011;52177;55.968;37.498;2023-11-22T01:31:53;4.93;;;3.72;;
65545;SDS011;52177;55.968;37.498;2023-11-22T01:32:23;4.93;;;3.70;;
65545;SDS011;52177;55.968;37.498;2023-11-22T01:32:54;6.07;;;3.90;;
65545;SDS011;52177;55.968;37.498;2023-11-22T01:33:25;3.72;;;3.30;;
65545;SDS011;52177;55.968;37.498;2023-11-22T01:33:57;7.07;;;4.10;;
65545;SDS011;52177;55.968;37.498;2023-11-22T01:34:28;4.65;;;3.55;;
65545;SDS011;52177;55.968;37.498;2023-11-22T01:34:59;5.45;;;3.50;;
65545;SDS011;52177;55.968;37.498;2023-11-22T01:35:30;5.03;;;3.45;;
65545;SDS011;52177;55.968;37.498;2023-11-22T01:36:01;4.70;;;3.42;;
65545;SDS011;52177;55.968;37.498;2023-11-22T01:36:31;4.65;;;3.72;;
65545;SDS011;52177;55.968;37.498;2023-11-22T01:37:02;5.38;;;3.92;;
65545;SDS011;52177;55.968;37.498;2023-11-22T01:37:33;6.13;;;4.13;;
65545;SDS011;52177;55.968;37.498;2023-11-22T01:38:04;5.05;;;3.70;;
65545;SDS011;52177;55.968;37.498;2023-11-22T01:38:35;4.97;;;3.70;;
65545;SDS011;52177;55.968;37.498;2023-11-22T01:39:06;6.38;;;4.03;;
65545;SDS011;52177;55.968;37.498;2023-11-22T01:39:38;5.40;;;3.97;;
65545;SDS011;52177;55.968;37.498;2023-11-22T01:40:10;5.97;;;3.55;;
65545;SDS011;52177;55.968;37.498;2023-11-22T01:40:45;4.80;;;3.50;;
65545;SDS011;52177;55.968;37.498;2023-11-22T01:41:21;4.43;;;3.45;;
65545;SDS011;52177;55.968;37.498;2023-11-22T01:41:52;4.45;;;3.63;;
65545;SDS011;52177;55.968;37.498;2023-11-22T01:42:23;4.82;;;3.67;;
65545;SDS011;52177;55.968;37.498;2023-11-22T01:42:54;4.10;;;3.22;;
65545;SDS011;52177;55.968;37.498;2023-11-22T01:43:26;7.43;;;3.67;;
65545;SDS011;52177;55.968;37.498;2023-11-22T01:43:57;4.65;;;3.33;;
65545;SDS011;52177;55.968;37.498;2023-11-22T01:44:28;4.78;;;3.45;;
65545;SDS011;52177;55.968;37.498;2023-11-22T01:44:58;4.70;;;3.90;;
65545;SDS011;52177;55.968;37.498;2023-11-22T01:45:28;4.68;;;3.55;;
65545;SDS011;52177;55.968;37.498;2023-11-22T01:45:59;3.92;;;3.30;;
65545;SDS011;52177;55.968;37.498;2023-11-22T01:46:30;4.43;;;3.38;;
65545;SDS011;52177;55.968;37.498;2023-11-22T01:47:01;5.25;;;3.35;;
65545;SDS011;52177;55.968;37.498;2023-11-22T01:47:34;5.82;;;3.25;;
65545;SDS011;52177;55.968;37.498;2023-11-22T01:48:05;4.20;;;3.47;;
65545;SDS011;52177;55.968;37.498;2023-11-22T01:48:35;4.60;;;3.13;;
65545;SDS011;52177;55.968;37.498;2023-11-22T01:49:09;4.45;;;3.08;;
65545;SDS011;52177;55.968;37.498;2023-11-22T01:49:40;5.20;;;3.08;;
65545;SDS011;52177;55.968;37.498;2023-11-22T01:50:11;4.28;;;3.20;;
65545;SDS011;52177;55.968;37.498;2023-11-22T01:50:42;5.57;;;3.53;;
65545;SDS011;52177;55.968;37.498;2023-11-22T01:51:13;5.65;;;3.70;;
65545;SDS011;52177;55.968;37.498;2023-11-22T01:51:44;5.28;;;3.47;;
65545;SDS011;52177;55.968;37.498;2023-11-22T01:52:15;4.22;;;3.03;;
65545;SDS011;52177;55.968;37.498;2023-11-22T01:52:46;5.05;;;3.10;;
65545;SDS011;52177;55.968;37.498;2023-11-22T01:53:17;4.88;;;3.20;;
65545;SDS011;52177;55.968;37.498;2023-11-22T01:53:49;4.68;;;3.53;;
65545;SDS011;52177;55.968;37.498;2023-11-22T01:54:23;5.50;;;3.17;;
65545;SDS011;52177;55.968;37.498;2023-11-22T01:54:55;3.05;;;2.75;;
65545;SDS011;52177;55.968;37.498;2023-11-22T01:55:25;4.25;;;3.20;;
65545;SDS011;52177;55.968;37.498;2023-11-22T01:55:56;5.07;;;3.53;;
65545;SDS011;52177;55.968;37.498;2023-11-22T01:56:27;5.82;;;3.50;;
65545;SDS011;52177;55.968;37.498;2023-11-22T01:56:59;3.88;;;3.13;;
65545;SDS011;52177;55.968;37.498;2023-11-22T01:57:31;4.38;;;3.20;;
65545;SDS011;52177;55.968;37.498;2023-11-22T01:58:05;4.47;;;3.38;;
65545;SDS011;52177;55.968;37.498;2023-11-22T01:58:36;5.07;;;3.83;;
65545;SDS011;52177;55.968;37.498;2023-11-22T01:59:07;4.03;;;3.35;;
65545;SDS011;52177;55.968;37.498;2023-11-22T01:59:37;6.30;;;3.70;;
65545;SDS011;52177;55.968;37.498;2023-11-22T02:00:09;5.07;;;2.97;;
65545;SDS011;52177;55.968;37.498;2023-11-22T02:00:50;3.50;;;3.03;;
65545;SDS011;52177;55.968;37.498;2023-11-22T02:01:21;4.65;;;3.00;;
65545;SDS011;52177;55.968;37.498;2023-11-22T02:01:53;6.63;;;3.38;;
65545;SDS011;52177;55.968;37.498;2023-11-22T02:02:24;5.05;;;2.95;;
65545;SDS011;52177;55.968;37.498;2023-11-22T02:02:55;4.22;;;2.85;;
65545;SDS011;52177;55.968;37.498;2023-11-22T02:03:26;4.10;;;2.78;;
65545;SDS011;52177;55.968;37.498;2023-11-22T02:03:56;3.92;;;3.00;;
65545;SDS011;52177;55.968;37.498;2023-11-22T02:04:27;4.00;;;3.03;;
65545;SDS011;52177;55.968;37.498;2023-11-22T02:04:58;4.43;;;2.92;;
65545;SDS011;52177;55.968;37.498;2023-11-22T02:05:28;6.53;;;3.22;;
65545;SDS011;52177;55.968;37.498;2023-11-22T02:05:59;4.75;;;3.00;;
65545;SDS011;52177;55.968;37.498;2023-11-22T02:06:30;4.47;;;2.70;;
65545;SDS011;52177;55.968;37.498;2023-11-22T02:07:01;3.75;;;2.80;;
65545;SDS011;52177;55.968;37.498;2023-11-22T02:07:32;4.72;;;2.80;;
65545;SDS011;52177;55.968;37.498;2023-11-22T02:08:03;4.30;;;3.10;;
65545;SDS011;52177;55.968;37.498;2023-11-22T02:08:33;4.05;;;3.00;;
65545;SDS011;52177;55.968;37.498;2023-11-22T02:09:04;4.75;;;3.55;;
65545;SDS011;52177;55.968;37.498;2023-11-22T02:09:34;3.50;;;2.97;;
65545;SDS011;52177;55.968;37.498;2023-11-22T02:10:06;4.07;;;3.10;;
65545;SDS011;52177;55.968;37.498;2023-11-22T02:10:37;3.58;;;2.60;;
65545;SDS011;52177;55.968;37.498;2023-11-22T02:11:08;3.25;;;2.40;;
65545;SDS011;52177;55.968;37.498;2023-11-22T02:11:39;4.40;;;3.03;;
65545;SDS011;52177;55.968;37.498;2023-11-22T02:12:11;4.35;;;3.38;;
65545;SDS011;52177;55.968;37.498;2023-11-22T02:12:42;5.43;;;3.08;;
65545;SDS011;52177;55.968;37.498;2023-11-22T02:13:12;6.28;;;3.10;;
65545;SDS011;52177;55.968;37.498;2023-11-22T02:13:43;3.67;;;3.10;;
65545;SDS011;52177;55.968;37.498;2023-11-22T02:14:14;3.60;;;2.88;;
65545;SDS011;52177;55.968;37.498;2023-11-22T02:14:45;4.65;;;3.35;;
65545;SDS011;52177;55.968;37.498;2023-11-22T02:15:16;4.57;;;2.95;;
65545;SDS011;52177;55.968;37.498;2023-11-22T02:15:46;4.47;;;3.10;;
65545;SDS011;52177;55.968;37.498;2023-11-22T02:16:17;4.07;;;3.28;;
65545;SDS011;52177;55.968;37.498;2023-11-22T02:16:49;5.80;;;2.95;;
65545;SDS011;52177;55.968;37.498;2023-11-22T02:17:20;4.18;;;3.10;;
65545;SDS011;52177;55.968;37.498;2023-11-22T02:17:52;4.95;;;2.90;;
65545;SDS011;52177;55.968;37.498;2023-11-22T02:18:23;4.75;;;2.88;;
65545;SDS011;52177;55.968;37.498;2023-11-22T02:18:53;3.75;;;2.65;;
65545;SDS011;52177;55.968;37.498;2023-11-22T02:19:24;4.70;;;3.05;;
65545;SDS011;52177;55.968;37.498;2023-11-22T02:19:55;3.65;;;2.80;;
65545;SDS011;52177;55.968;37.498;2023-11-22T02:20:25;5.32;;;3.35;;
65545;SDS011;52177;55.968;37.498;2023-11-22T02:20:56;4.32;;;3.30;;
65545;SDS011;52177;55.968;37.498;2023-11-22T02:21:27;4.93;;;3.10;;
65545;SDS011;52177;55.968;37.498;2023-11-22T02:21:57;4.32;;;3.08;;
65545;SDS011;52177;55.968;37.498;2023-11-22T02:22:29;4.97;;;3.15;;
65545;SDS011;52177;55.968;37.498;2023-11-22T02:23:09;4.63;;;2.88;;
65545;SDS011;52177;55.968;37.498;2023-11-22T02:23:41;3.90;;;2.70;;
65545;SDS011;52177;55.968;37.498;2023-11-22T02:24:12;4.65;;;3.10;;
65545;SDS011;52177;55.968;37.498;2023-11-22T02:24:42;4.00;;;2.78;;
65545;SDS011;52177;55.968;37.498;2023-11-22T02:25:13;3.00;;;2.55;;
65545;SDS011;52177;55.968;37.498;2023-11-22T02:25:45;2.72;;;2.50;;
65545;SDS011;52177;55.968;37.498;2023-11-22T02:26:15;5.25;;;3.13;;
65545;SDS011;52177;55.968;37.498;2023-11-22T02:26:47;4.40;;;2.95;;
65545;SDS011;52177;55.968;37.498;2023-11-22T02:27:18;6.82;;;3.58;;
65545;SDS011;52177;55.968;37.498;2023-11-22T02:27:49;3.25;;;2.75;;
65545;SDS011;52177;55.968;37.498;2023-11-22T02:28:19;5.13;;;3.10;;
65545;SDS011;52177;55.968;37.498;2023-11-22T02:28:50;6.30;;;3.20;;
65545;SDS011;52177;55.968;37.498;2023-11-22T02:29:21;4.63;;;3.35;;
65545;SDS011;52177;55.968;37.498;2023-11-22T02:29:51;3.95;;;2.88;;
65545;SDS011;52177;55.968;37.498;2023-11-22T02:30:21;6.25;;;2.92;;
65545;SDS011;52177;55.968;37.498;2023-11-22T02:30:54;5.75;;;4.35;;
65545;SDS011;52177;55.968;37.498;2023-11-22T02:31:24;6.68;;;3.45;;
65545;SDS011;52177;55.968;37.498;2023-11-22T02:31:57;5.30;;;3.80;;
65545;SDS011;52177;55.968;37.498;2023-11-22T02:32:28;10.93;;;6.45;;
65545;SDS011;52177;55.968;37.498;2023-11-22T02:32:59;10.80;;;6.13;;
65545;SDS011;52177;55.968;37.498;2023-11-22T02:33:30;7.07;;;4.82;;
65545;SDS011;52177;55.968;37.498;2023-11-22T02:34:00;5.00;;;3.50;;
65545;SDS011;52177;55.968;37.498;2023-11-22T02:34:31;3.80;;;2.85;;
65545;SDS011;52177;55.968;37.498;2023-11-22T02:35:01;4.63;;;3.10;;
65545;SDS011;52177;55.968;37.498;2023-11-22T02:35:34;5.13;;;3.33;;
65545;SDS011;52177;55.968;37.498;2023-11-22T02:36:05;4.13;;;3.17;;
65545;SDS011;52177;55.968;37.498;2023-11-22T02:36:37;3.75;;;2.78;;
65545;SDS011;52177;55.968;37.498;2023-11-22T02:37:08;5.03;;;2.88;;
65545;SDS011;52177;55.968;37.498;2023-11-22T02:37:38;4.63;;;2.95;;
65545;SDS011;52177;55.968;37.498;2023-11-22T02:38:09;4.25;;;3.20;;
65545;SDS011;52177;55.968;37.498;2023-11-22T02:38:40;3.92;;;2.97;;
65545;SDS011;52177;55.968;37.498;2023-11-22T02:39:10;3.65;;;2.90;;
65545;SDS011;52177;55.968;37.498;2023-11-22T02:39:54;4.45;;;2.97;;
65545;SDS011;52177;55.968;37.498;2023-11-22T02:40:31;4.13;;;3.08;;
65545;SDS011;52177;55.968;37.498;2023-11-22T02:41:02;4.43;;;2.83;;
65545;SDS011;52177;55.968;37.498;2023-11-22T02:41:34;4.38;;;2.88;;
65545;SDS011;52177;55.968;37.498;2023-11-22T02:42:05;4.05;;;2.45;;
65545;SDS011;52177;55.968;37.498;2023-11-22T02:42:35;3.63;;;2.65;;
65545;SDS011;52177;55.968;37.498;2023-11-22T02:43:06;3.50;;;2.70;;
65545;SDS011;52177;55.968;37.498;2023-11-22T02:43:39;4.50;;;2.80;;
65545;SDS011;52177;55.968;37.498;2023-11-22T02:44:11;3.78;;;2.75;;
65545;SDS011;52177;55.968;37.498;2023-11-22T02:44:45;4.88;;;2.85;;
65545;SDS011;52177;55.968;37.498;2023-11-22T02:45:17;4.97;;;3.05;;
65545;SDS011;52177;55.968;37.498;2023-11-22T02:45:50;5.57;;;2.85;;
65545;SDS011;52177;55.968;37.498;2023-11-22T02:46:20;4.10;;;2.90;;
65545;SDS011;52177;55.968;37.498;2023-11-22T02:46:51;4.10;;;3.00;;
65545;SDS011;52177;55.968;37.498;2023-11-22T02:47:23;3.05;;;2.53;;
65545;SDS011;52177;55.968;37.498;2023-11-22T02:47:54;3.55;;;2.80;;
65545;SDS011;52177;55.968;37.498;2023-11-22T02:48:24;4.50;;;2.70;;
65545;SDS011;52177;55.968;37.498;2023-11-22T02:48:55;3.28;;;2.35;;
65545;SDS011;52177;55.968;37.498;2023-11-22T02:49:25;3.40;;;2.65;;
65545;SDS011;52177;55.968;37.498;2023-11-22T02:49:56;4.30;;;2.75;;
65545;SDS011;52177;55.968;37.498;2023-11-22T02:50:27;3.97;;;2.80;;
65545;SDS011;52177;55.968;37.498;2023-11-22T02:50:57;3.28;;;2.40;;
65545;SDS011;52177;55.968;37.498;2023-11-22T02:51:29;5.82;;;2.90;;
65545;SDS011;52177;55.968;37.498;2023-11-22T02:52:00;4.32;;;2.70;;
65545;SDS011;52177;55.968;37.498;2023-11-22T02:52:31;5.03;;;2.92;;
65545;SDS011;52177;55.968;37.498;2023-11-22T02:53:03;3.08;;;2.33;;
65545;SDS011;52177;55.968;37.498;2023-11-22T02:53:33;4.18;;;2.72;;
65545;SDS011;52177;55.968;37.498;2023-11-22T02:54:04;3.97;;;3.22;;
65545;SDS011;52177;55.968;37.498;2023-11-22T02:54:35;4.30;;;2.70;;
65545;SDS011;52177;55.968;37.498;2023-11-22T02:55:06;3.33;;;2.65;;
65545;SDS011;52177;55.968;37.498;2023-11-22T02:55:37;8.32;;;2.75;;
65545;SDS011;52177;55.968;37.498;2023-11-22T02:56:07;3.90;;;2.95;;
65545;SDS011;52177;55.968;37.498;2023-11-22T02:56:38;3.88;;;3.03;;
65545;SDS011;52177;55.968;37.498;2023-11-22T02:57:08;4.35;;;2.65;;
65545;SDS011;52177;55.968;37.498;2023-11-22T02:57:39;5.20;;;3.03;;
65545;SDS011;52177;55.968;37.498;2023-11-22T02:58:10;3.60;;;2.65;;
65545;SDS011;52177;55.968;37.498;2023-11-22T02:58:42;4.18;;;2.92;;
65545;SDS011;52177;55.968;37.498;2023-11-22T02:59:13;3.33;;;2.80;;
65545;SDS011;52177;55.968;37.498;2023-11-22T02:59:44;3.22;;;2.45;;
65545;SDS011;52177;55.968;37.498;2023-11-22T03:00:14;3.75;;;2.72;;
65545;SDS011;52177;55.968;37.498;2023-11-22T03:00:45;2.72;;;2.13;;
65545;SDS011;52177;55.968;37.498;2023-11-22T03:01:15;3.90;;;2.80;;
65545;SDS011;52177;55.968;37.498;2023-11-22T03:01:46;2.97;;;2.28;;
65545;SDS011;52177;55.968;37.498;2023-11-22T03:02:16;3.55;;;2.80;;
65545;SDS011;52177;55.968;37.498;2023-11-22T03:02:47;4.22;;;2.72;;
65545;SDS011;52177;55.968;37.498;2023-11-22T03:03:17;3.83;;;2.80;;
65545;SDS011;52177;55.968;37.498;2023-11-22T03:03:48;6.25;;;3.33;;
65545;SDS011;52177;55.968;37.498;2023-11-22T03:04:18;3.63;;;2.90;;